Latest Weather Observations for Yanco

IDN60801

Issued at 3:34 pm EDT Tuesday 23 December 2014 (issued every 30 minutes, with the page automatically refreshed every 10 minutes)

About weather observations | Map of weather stations | Latest weather observations for NSW | Other Formats
Station Details ID: 074037 Name: YANCO AGRICULTURAL INSTITUTE Lat: -34.62 Lon: 146.43 Height: 164.0 m
Data from the previous 72 hours. | See also: Recent months at Yanco
Date/Time
EDT
Temp
°C
App
Temp
°C
Dew
Point
Rel
Hum
%
Delta-T
°C
Wind Press
QNH
hPa
Press
MSL
hPa
Rain
since 9 am
mm
Dir
 
Spd
km/h
Gust
km/h
Spd
kts
Gust
kts
23/03:30pm 33.4 31.8 14.9 32 11.5 N 17 28 9 15 - - 0.6
23/03:00pm 32.4 29.9 14.1 33 11.2 NNW 20 37 11 20 - - 0.6
23/02:30pm 31.7 30.4 14.8 36 10.4 NNW 15 22 8 12 - - 0.6
23/02:00pm 31.5 29.9 15.0 36 10.2 N 17 26 9 14 - - 0.6
23/01:30pm 28.9 27.5 16.5 47 7.8 N 19 26 10 14 - - 0.6
23/01:00pm 26.9 26.7 19.3 63 4.9 N 19 26 10 14 - - 0.6
23/12:30pm 24.3 25.2 20.8 81 2.3 N 17 22 9 12 - - 0.6
23/12:17pm 23.4 22.2 18.5 74 3.1 N 22 33 12 18 - - 0.6
23/12:00pm 28.4 25.8 16.0 47 7.7 N 24 33 13 18 - - 0.0
23/11:30am 28.1 27.7 16.1 48 7.5 N 13 20 7 11 - - 0.0
23/11:00am 28.3 26.5 14.5 43 8.4 N 17 24 9 13 - - 0.0
23/10:30am 28.6 27.8 15.2 44 8.2 NNE 13 17 7 9 - - 0.0
23/10:00am 27.5 27.2 16.5 51 6.9 N 13 20 7 11 - - 0.0
23/09:30am 25.2 26.3 17.1 60 5.1 N 7 11 4 6 - - 0.0
23/09:00am 23.5 24.8 17.5 69 3.7 N 7 11 4 6 - - 0.0
23/08:30am 24.2 26.2 15.9 59 5.1 CALM 0 4 0 2 - - 0.0
23/08:00am 23.9 24.2 15.9 61 4.9 NW 9 13 5 7 - - 0.0
23/07:30am 24.1 23.7 15.3 58 5.3 NNE 11 13 6 7 - - 0.0
23/07:00am 23.5 24.9 14.5 57 5.4 CALM 0 4 0 2 - - 0.0
23/06:30am 23.1 23.6 14.9 60 4.9 NNW 6 9 3 5 - - 0.0
23/06:00am 23.3 23.1 14.8 59 5.1 NNW 9 17 5 9 - - 0.0
23/05:30am 23.5 23.0 14.8 58 5.2 NW 11 15 6 8 - - 0.0
23/05:00am 23.7 23.4 14.4 56 5.5 N 9 15 5 8 - - 0.0
23/04:30am 23.9 22.4 14.3 55 5.7 NNE 15 20 8 11 - - 0.0
23/04:00am 24.7 21.4 13.9 51 6.4 NNE 24 33 13 18 - - 0.0
23/03:30am 25.3 21.7 13.2 47 7.1 NNE 24 37 13 20 - - 0.0
23/03:00am 25.6 23.2 12.8 45 7.5 NNE 17 22 9 12 - - 0.0
23/02:30am 26.5 23.8 11.8 40 8.5 NNE 17 24 9 13 - - 0.0
23/02:00am 27.1 23.8 10.8 36 9.3 NE 19 26 10 14 - - 0.0
23/01:30am 28.1 25.7 9.9 32 10.2 NNE 13 19 7 10 - - 0.0
23/01:00am 27.4 25.4 8.8 31 10.2 N 9 13 5 7 - - 0.0
23/12:30am 27.3 26.5 9.6 33 9.9 N 4 7 2 4 - - 0.0
23/12:00am 28.1 27.5 10.3 33 10.1 WNW 4 9 2 5 - - 0.0
 
Date/Time
EDT
Temp
°C
App
Temp
°C
Dew
Point
Rel
Hum
%
Delta-T
°C
Wind Press
QNH
hPa
Press
MSL
hPa
Rain
since 9 am
mm
Dir
 
Spd
km/h
Gust
km/h
Spd
kts
Gust
kts
22/11:30pm 28.1 25.6 11.2 35 9.7 NE 15 20 8 11 - - 0.0
22/11:00pm 26.9 24.3 13.3 43 8.1 E 19 26 10 14 - - 0.0
22/10:30pm 26.7 25.4 13.8 45 7.7 ESE 13 20 7 11 - - 0.0
22/10:00pm 27.2 23.0 13.5 42 8.1 ENE 28 46 15 25 - - 0.0
22/09:30pm 27.5 24.3 13.1 41 8.5 ENE 22 32 12 17 - - 0.0
22/09:09pm 28.8 24.5 12.2 35 9.7 ENE 26 44 14 24 - - 0.0
22/09:00pm 30.2 27.8 10.2 29 11.4 NE 13 20 7 11 - - 0.0
22/08:30pm 32.3 29.5 5.0 18 14.5 NW 9 19 5 10 - - 0.0
22/08:00pm 32.7 29.0 4.5 17 14.9 NW 13 30 7 16 - - 0.0
22/07:30pm 31.5 28.9 7.9 23 13.1 WNW 11 28 6 15 - - 0.0
22/07:00pm 31.7 27.5 9.8 26 12.5 NW 22 37 12 20 - - 0.0
22/06:30pm 31.5 29.5 10.2 27 12.2 ESE 11 15 6 8 - - 0.0
22/06:00pm 31.3 29.4 10.6 28 12.0 SE 11 20 6 11 - - 0.0
22/05:30pm 33.0 30.7 9.1 23 13.6 E 11 17 6 9 - - 0.0
22/05:00pm 32.1 28.4 10.2 26 12.6 NW 20 33 11 18 - - 0.0
22/04:30pm 33.5 29.8 9.5 23 13.8 NE 19 41 10 22 - - 0.0
22/04:00pm 33.6 32.6 9.0 22 14.0 NNW 4 7 2 4 - - 0.0
22/03:30pm 31.9 30.0 11.7 29 11.9 W 13 24 7 13 - - 0.0
22/03:00pm 31.2 25.0 10.0 27 12.1 NW 33 56 18 30 - - 0.0
22/02:58pm 32.1 26.7 10.8 27 12.4 NW 30 54 16 29 - - 0.0
22/02:30pm 35.7 31.8 9.3 20 15.3 NNE 20 30 11 16 - - 0.0
22/02:00pm 36.8 32.1 9.4 19 15.9 N 24 35 13 19 - - 0.0
22/01:30pm 35.7 30.8 8.5 19 15.5 N 24 35 13 19 - - 0.0
22/01:00pm 36.2 32.2 11.8 23 14.7 N 24 39 13 21 - - 0.0
22/12:30pm 34.8 31.2 11.9 25 13.7 N 22 35 12 19 - - 0.0
22/12:00pm 33.5 30.5 12.5 28 12.6 N 20 33 11 18 - - 0.0
22/11:30am 32.1 28.3 12.3 29 11.8 N 24 35 13 19 - - 0.0
22/11:00am 31.2 27.7 12.1 31 11.3 N 22 30 12 16 - - 0.0
22/10:30am 32.1 28.3 12.3 29 11.8 N 24 32 13 17 - - 0.0
22/10:00am 31.4 28.1 12.7 32 11.2 N 22 30 12 16 - - 0.0
22/09:30am 30.5 26.5 11.9 31 10.9 N 24 32 13 17 - - 0.0
22/09:00am 30.3 26.3 11.8 32 10.9 N 24 35 13 19 - - 0.0
22/08:30am 29.6 25.9 11.6 33 10.5 N 22 32 12 17 - - 0.0
22/08:00am 28.7 25.3 11.3 34 10.1 NNE 20 32 11 17 - - 0.0
22/07:30am 28.6 23.9 10.8 33 10.2 NNE 26 33 14 18 - - 0.0
22/07:00am 26.8 21.9 8.3 31 10.1 NNE 24 32 13 17 - - 0.0
22/06:30am 25.4 21.9 5.6 28 10.2 NE 13 19 7 10 - - 0.0
22/06:00am 23.1 19.1 5.1 31 9.1 E 15 19 8 10 - - 0.0
22/05:30am 23.9 20.0 5.3 30 9.4 E 15 17 8 9 - - 0.0
22/05:00am 24.2 20.3 5.5 30 9.5 E 15 17 8 9 - - 0.0
22/04:30am 24.5 21.0 5.3 29 9.8 E 13 15 7 8 - - 0.0
22/04:00am 24.4 21.0 5.7 30 9.6 E 13 15 7 8 - - 0.0
22/03:30am 24.7 21.3 6.0 30 9.7 E 13 17 7 9 - - 0.0
22/03:00am 24.6 21.2 5.9 30 9.6 E 13 15 7 8 - - 0.0
22/02:30am 24.5 21.9 6.3 31 9.4 E 9 13 5 7 - - 0.0
22/02:00am 24.4 21.7 5.7 30 9.6 E 9 11 5 6 - - 0.0
22/01:30am 24.2 21.5 5.5 30 9.5 E 9 13 5 7 - - 0.0
22/01:00am 24.9 22.5 5.2 28 10.0 SE 7 9 4 5 - - 0.0
22/12:30am 26.0 22.8 5.0 26 10.7 SSE 11 13 6 7 - - 0.0
22/12:00am 26.7 23.1 5.1 25 11.1 SSE 13 17 7 9 - - 0.0
 
Date/Time
EDT
Temp
°C
App
Temp
°C
Dew
Point
Rel
Hum
%
Delta-T
°C
Wind Press
QNH
hPa
Press
MSL
hPa
Rain
since 9 am
mm
Dir
 
Spd
km/h
Gust
km/h
Spd
kts
Gust
kts
21/11:30pm 26.4 23.3 5.4 26 10.8 S 11 13 6 7 - - 0.0
21/11:00pm 26.0 23.7 5.6 27 10.5 SSW 7 9 4 5 - - 0.0
21/10:30pm 28.0 26.0 4.3 22 12.1 S 4 4 2 2 - - 0.0
21/10:00pm 28.4 26.1 4.6 22 12.3 SSW 6 7 3 4 - - 0.0
21/09:30pm 29.6 27.0 4.3 20 13.1 SSE 7 9 4 5 - - 0.0
21/09:00pm 30.3 27.8 4.9 20 13.3 S 7 9 4 5 - - 0.0
21/08:30pm 30.6 28.0 4.4 19 13.6 S 7 9 4 5 - - 0.0
21/08:00pm 31.8 30.6 4.6 18 14.3 CALM 0 0 0 0 - - 0.0
21/07:30pm 32.8 30.7 3.7 16 15.2 NW 4 6 2 3 - - 0.0
21/07:00pm 34.0 31.5 3.7 15 15.9 W 6 9 3 5 - - 0.0
21/06:30pm 34.0 30.4 2.8 14 16.1 NW 11 15 6 8 - - 0.0
21/06:00pm 35.2 31.7 3.7 14 16.6 W 11 17 6 9 - - 0.0
21/05:30pm 34.6 30.9 4.2 15 16.1 NW 13 22 7 12 - - 0.0
21/05:00pm 35.1 31.8 4.6 15 16.3 NW 11 22 6 12 - - 0.0
21/04:30pm 34.7 31.4 4.3 15 16.2 NW 11 19 6 10 - - 0.0
21/04:00pm 33.9 30.6 4.6 16 15.6 NNW 11 32 6 17 - - 0.0
21/03:30pm 34.3 32.4 4.9 16 15.8 S 4 17 2 9 - - 0.0
21/03:00pm 34.1 30.4 4.7 16 15.7 WNW 13 28 7 15 - - 0.0
21/02:30pm 34.1 29.9 5.6 17 15.4 WNW 17 28 9 15 - - 0.0
21/02:00pm 34.4 31.5 6.7 18 15.3 NW 11 22 6 12 - - 0.0
21/01:30pm 33.3 29.5 5.8 18 14.9 NW 15 28 8 15 - - 0.0
21/01:00pm 33.1 29.6 5.6 18 14.8 N 13 22 7 12 - - 0.0
21/12:30pm 32.2 28.8 5.7 19 14.2 NW 13 24 7 13 - - 0.0
21/12:00pm 32.2 28.9 6.4 20 14.0 N 13 32 7 17 - - 0.0
21/11:30am 31.1 29.1 6.9 22 13.2 NNW 7 15 4 8 - - 0.0
21/11:00am 30.2 27.0 6.8 23 12.7 N 13 19 7 10 - - 0.0
21/10:30am 28.9 26.6 7.5 26 11.6 N 9 20 5 11 - - 0.0
21/10:00am 27.4 24.7 7.3 28 10.8 N 11 17 6 9 - - 0.0
21/09:30am 26.5 23.1 7.5 30 10.2 NNE 15 22 8 12 - - 0.0
21/09:00am 25.5 23.5 8.5 34 9.2 N 9 13 5 7 - - 0.0
21/08:30am 25.0 22.6 8.5 35 8.9 NNE 11 17 6 9 - - 0.0
21/08:00am 23.4 21.9 9.0 40 7.8 ENE 7 11 4 6 - - 0.0
21/07:30am 20.8 18.0 8.4 45 6.5 E 13 17 7 9 - - 0.0
21/07:00am 19.0 15.5 7.1 46 6.1 E 15 19 8 10 - - 0.0
21/06:30am 17.9 14.3 6.7 48 5.6 E 15 19 8 10 - - 0.0
21/06:00am 18.4 15.3 7.2 48 5.7 E 13 17 7 9 - - 0.0
21/05:30am 18.4 15.6 6.9 47 5.8 E 11 13 6 7 - - 0.0
21/05:00am 19.2 17.2 7.0 45 6.2 E 7 11 4 6 - - 0.0
21/04:30am 19.7 17.8 7.4 45 6.3 ESE 7 9 4 5 - - 0.0
21/04:00am 19.9 17.9 7.0 43 6.6 ESE 7 9 4 5 - - 0.0
21/03:30am 20.2 18.2 6.9 42 6.8 SE 7 9 4 5 - - 0.0
21/03:00am 20.9 18.5 7.2 41 7.1 SSE 9 13 5 7 - - 0.0
21/02:30am 20.4 18.6 7.1 42 6.8 S 6 7 3 4 - - 0.0
21/02:00am 21.0 18.6 6.9 40 7.2 S 9 11 5 6 - - 0.0
21/01:30am 21.4 19.0 6.9 39 7.5 SSE 9 11 5 6 - - 0.0
21/01:00am 21.8 19.4 6.9 38 7.7 S 9 11 5 6 - - 0.0
21/12:30am 22.2 19.8 6.8 37 8.0 S 9 11 5 6 - - 0.0
21/12:00am 22.2 19.8 6.8 37 8.0 S 9 9 5 5 - - 0.0
 
Date/Time
EDT
Temp
°C
App
Temp
°C
Dew
Point
Rel
Hum
%
Delta-T
°C
Wind Press
QNH
hPa
Press
MSL
hPa
Rain
since 9 am
mm
Dir
 
Spd
km/h
Gust
km/h
Spd
kts
Gust
kts
20/11:30pm 22.5 20.0 6.7 36 8.2 SSW 9 9 5 5 - - 0.0
20/11:00pm 23.2 20.8 6.9 35 8.5 S 9 11 5 6 - - 0.0
20/10:30pm 23.6 21.1 6.4 33 8.9 SSW 9 9 5 5 - - 0.0
20/10:00pm 24.3 22.1 6.1 31 9.4 S 7 9 4 5 - - 0.0
20/09:30pm 24.9 22.6 5.7 29 9.9 S 7 7 4 4 - - 0.0
20/09:00pm 25.9 23.8 6.0 28 10.4 SSW 6 6 3 3 - - 0.0
20/08:30pm 26.8 24.6 5.1 25 11.2 S 6 7 3 4 - - 0.0
20/08:00pm 28.6 25.0 4.8 22 12.3 S 13 17 7 9 - - 0.0
20/07:30pm 29.5 25.9 4.9 21 12.8 SSW 13 19 7 10 - - 0.0
20/07:00pm 30.3 27.4 4.9 20 13.3 SW 9 15 5 8 - - 0.0
20/06:30pm 30.8 27.6 5.3 20 13.5 SSW 11 19 6 10 - - 0.0
20/06:00pm 30.2 26.6 4.8 20 13.3 S 13 20 7 11 - - 0.0
20/05:30pm 30.5 26.9 5.0 20 13.4 SSW 13 20 7 11 - - 0.0
20/05:00pm 30.3 26.7 4.9 20 13.3 SSW 13 24 7 13 - - 0.0
20/04:30pm 30.4 26.8 4.9 20 13.4 W 13 22 7 12 - - 0.0
20/04:00pm 29.5 26.6 4.9 21 12.8 SW 9 17 5 9 - - 0.0

Other Formats:

Comma delimited format used in spreadsheet applications
http://www.bom.gov.au/fwo/IDN60801/IDN60801.95705.axf

JavaScript Object Notation format (JSON) in row-major order
http://www.bom.gov.au/fwo/IDN60801/IDN60801.95705.json